KRAC/RAC METAR and TAF weather

Enter ICAO airport designator
Station Type Date Time Source
KRAC METAR 2019/02/23 23:28 UTC NOAA

KRAC 232328Z AUTO 09007KT 1/2SM FG VV002 02/01 A2971 RMK AO2 T00170006


Station Type Date Time Source
KRAC Decoded METAR 2019/02/23 23:28 UTC NOAA

BATTEN INTERNATIONAL AIRPORT, WI, United States (KRAC) 42-46N 87-49W 203M
Feb 23, 2019 - 06:28 PM EST / 2019.02.23 2328 UTC
Wind: from the E (090 degrees) at 8 MPH (7 KT):0
Visibility: 1/2 mile(s):0
Sky conditions: obscured
Weather: fog
Temperature: 35.1 F (1.7 C)
Dew Point: 33.1 F (0.6 C)
Relative Humidity: 92%
Pressure (altimeter): 29.71 in. Hg (1006 hPa)
ob: KRAC 232328Z AUTO 09007KT 1/2SM FG VV002 02/01 A2971 RMK AO2 T00170006
cycle: 23

Station Type Date Time Source
KRAC TAF UTC NOAA

Error!


Example: see airport list